createdAt,value
2023-03-12T00:01:24.071Z,74.02
2023-03-12T00:06:25.777Z,73.91
2023-03-12T00:11:27.685Z,74.00
2023-03-12T00:16:30.724Z,74.22
2023-03-12T00:21:32.408Z,74.23
2023-03-12T00:26:34.110Z,74.25
2023-03-12T00:31:37.411Z,74.17
2023-03-12T00:36:41.191Z,74.05
2023-03-12T00:41:42.982Z,74.07
2023-03-12T00:46:46.103Z,74.16
2023-03-12T00:51:48.089Z,74.20
2023-03-12T00:56:49.896Z,74.29
2023-03-12T01:01:53.018Z,74.63
2023-03-12T01:06:55.060Z,74.99
2023-03-12T01:11:56.796Z,75.40
2023-03-12T01:16:59.916Z,75.09
2023-03-12T01:22:01.769Z,75.22
2023-03-12T01:27:04.685Z,75.26
2023-03-12T01:32:08.113Z,75.67
2023-03-12T01:37:09.847Z,75.72
2023-03-12T01:42:11.600Z,75.62
2023-03-12T01:47:14.976Z,75.90
2023-03-12T01:52:17.443Z,75.45
2023-03-12T01:57:24.590Z,75.52
2023-03-12T02:02:29.772Z,75.09
2023-03-12T02:07:34.648Z,75.09
2023-03-12T02:12:36.337Z,75.50
2023-03-12T02:17:40.503Z,75.45
2023-03-12T02:22:44.394Z,75.72
2023-03-12T02:27:47.430Z,76.00
2023-03-12T02:32:49.670Z,76.06
2023-03-12T02:37:54.385Z,76.69
2023-03-12T02:42:58.079Z,76.77
2023-03-12T02:48:00.009Z,76.94
2023-03-12T02:53:01.794Z,77.07
2023-03-12T02:58:05.073Z,77.76
2023-03-12T03:03:06.862Z,77.74
2023-03-12T03:08:08.593Z,77.91
2023-03-12T03:13:11.677Z,78.13
2023-03-12T03:18:13.604Z,77.55
2023-03-12T03:23:15.357Z,78.26
2023-03-12T03:28:18.533Z,78.97
2023-03-12T03:33:20.421Z,79.34
2023-03-12T03:38:22.549Z,79.51
2023-03-12T03:43:25.734Z,79.96
2023-03-12T03:48:27.778Z,80.59
2023-03-12T03:53:29.764Z,80.69
2023-03-12T03:58:33.262Z,80.13
2023-03-12T04:03:35.325Z,81.41
2023-03-12T04:08:38.917Z,81.38
2023-03-12T04:13:45.499Z,81.75
2023-03-12T04:18:49.188Z,81.96
2023-03-12T04:23:51.879Z,82.32
2023-03-12T04:28:57.747Z,82.75
2023-03-12T04:33:59.664Z,83.25
2023-03-12T04:39:01.881Z,82.96
2023-03-12T04:44:11.615Z,82.84
2023-03-12T04:49:14.977Z,83.27
2023-03-12T04:54:17.769Z,84.52
2023-03-12T04:59:20.996Z,85.15
2023-03-12T05:04:22.961Z,85.32
2023-03-12T05:09:25.477Z,85.05
2023-03-12T05:14:29.124Z,84.72
2023-03-12T05:19:31.113Z,84.26
2023-03-12T05:24:32.988Z,85.95
2023-03-12T05:29:37.477Z,85.78
2023-03-12T05:34:39.332Z,85.44
2023-03-12T05:39:46.735Z,85.32
2023-03-12T05:44:52.295Z,85.26
2023-03-12T05:49:56.283Z,85.92
2023-03-12T05:54:58.279Z,85.29
2023-03-12T06:00:01.775Z,85.27
2023-03-12T06:05:14.925Z,85.93
2023-03-12T06:10:17.229Z,86.52
2023-03-12T06:15:21.142Z,86.05
2023-03-12T06:20:23.062Z,86.28
2023-03-12T06:25:24.898Z,87.99
2023-03-12T06:30:28.087Z,88.52
2023-03-12T06:35:30.019Z,87.65
2023-03-12T06:40:32.955Z,86.95
2023-03-12T06:45:36.072Z,85.34
2023-03-12T06:50:37.885Z,83.36
2023-03-12T06:55:39.583Z,81.73
2023-03-12T07:00:42.755Z,82.32
2023-03-12T07:05:44.714Z,78.11
2023-03-12T07:10:46.478Z,76.99
2023-03-12T07:15:49.848Z,76.72
2023-03-12T07:20:51.954Z,74.07
2023-03-12T07:25:53.833Z,74.45
2023-03-12T07:31:01.243Z,72.23
2023-03-12T07:36:03.475Z,66.62
2023-03-12T07:41:05.302Z,57.75
2023-03-12T07:46:08.381Z,60.15
2023-03-12T07:51:10.062Z,62.63
2023-03-12T07:56:11.936Z,63.72
2023-03-12T08:01:15.260Z,64.81
2023-03-12T08:06:17.046Z,63.00
2023-03-12T08:11:18.873Z,60.21
2023-03-12T08:16:21.934Z,58.30
2023-03-12T08:21:23.885Z,58.23
2023-03-12T08:26:25.634Z,56.60
2023-03-12T08:31:28.980Z,53.83
2023-03-12T08:36:30.731Z,50.35
2023-03-12T08:41:32.516Z,49.19
2023-03-12T08:46:35.504Z,49.09
2023-03-12T08:51:37.238Z,49.51
2023-03-12T08:56:42.293Z,50.68
2023-03-12T09:01:45.362Z,51.70
2023-03-12T09:06:47.280Z,52.61
2023-03-12T09:11:49.009Z,52.37
2023-03-12T09:16:52.150Z,52.66
2023-03-12T09:21:53.965Z,50.81
2023-03-12T09:26:55.647Z,47.12
2023-03-12T09:31:58.646Z,45.98
2023-03-12T09:37:00.332Z,43.34
2023-03-12T09:42:02.156Z,41.83
2023-03-12T09:47:07.731Z,41.89
2023-03-12T09:52:16.598Z,38.67
2023-03-12T09:57:21.046Z,37.09
2023-03-12T10:02:55.979Z,36.82
2023-03-12T10:07:58.479Z,37.06
2023-03-12T10:13:08.193Z,37.90
2023-03-12T10:18:17.286Z,37.76
2023-03-12T10:23:23.277Z,38.35
2023-03-12T10:28:28.639Z,36.91
2023-03-12T10:33:37.730Z,38.93
2023-03-12T10:38:39.394Z,41.19
2023-03-12T10:43:41.098Z,43.00
2023-03-12T10:48:44.255Z,43.69
2023-03-12T10:53:47.991Z,44.15
2023-03-12T10:58:50.939Z,45.65
2023-03-12T11:04:07.646Z,47.02
2023-03-12T11:09:17.557Z,47.95
2023-03-12T11:14:20.279Z,48.48
2023-03-12T11:19:28.766Z,47.79
2023-03-12T11:24:30.487Z,47.99
2023-03-12T11:29:33.292Z,48.90
2023-03-12T11:34:37.433Z,50.46
2023-03-12T11:39:50.933Z,51.98
2023-03-12T11:44:56.877Z,52.39
2023-03-12T11:50:06.132Z,53.39
2023-03-12T11:55:19.029Z,53.92
2023-03-12T12:00:22.533Z,53.66
2023-03-12T12:05:32.318Z,53.06
2023-03-12T12:10:37.712Z,55.06
2023-03-12T12:15:43.792Z,56.40
2023-03-12T12:20:48.897Z,58.75
2023-03-12T12:26:00.330Z,60.94
2023-03-12T12:31:08.197Z,62.88
2023-03-12T12:36:11.425Z,64.43
2023-03-12T12:41:15.409Z,65.76
2023-03-12T12:46:18.188Z,73.65
2023-03-12T12:51:22.854Z,76.64
2023-03-12T12:56:28.186Z,77.46
2023-03-12T13:01:30.069Z,79.27
2023-03-12T13:06:58.012Z,80.86
2023-03-12T13:11:59.771Z,81.93
2023-03-12T13:17:19.681Z,81.96
2023-03-12T13:22:29.352Z,81.77
2023-03-12T13:27:31.958Z,83.26
2023-03-12T13:32:38.568Z,85.10
2023-03-12T13:37:59.046Z,86.62
2023-03-12T13:43:09.292Z,86.81
2023-03-12T13:48:14.272Z,87.77
2023-03-12T13:53:20.731Z,88.10
2023-03-12T13:58:23.578Z,88.44
2023-03-12T14:03:26.318Z,89.28
2023-03-12T14:08:40.386Z,90.37
2023-03-12T14:14:04.025Z,91.02
2023-03-12T14:19:05.873Z,91.97
2023-03-12T14:24:12.726Z,93.69
2023-03-12T14:29:19.309Z,94.68
2023-03-12T14:34:22.884Z,95.07
2023-03-12T14:39:28.128Z,96.24
2023-03-12T14:44:30.627Z,97.12
2023-03-12T14:49:32.351Z,98.14
2023-03-12T14:54:35.541Z,98.72
2023-03-12T14:59:38.973Z,98.90
2023-03-12T15:04:40.736Z,99.05
2023-03-12T15:09:44.746Z,99.27
2023-03-12T15:14:46.419Z,99.83
2023-03-12T15:19:48.150Z,99.80
2023-03-12T15:24:51.145Z,100.00
2023-03-12T15:29:53.000Z,100.00
2023-03-12T15:34:55.148Z,100.00
2023-03-12T15:39:59.251Z,100.00
2023-03-12T15:45:03.207Z,100.00
2023-03-12T15:50:07.752Z,100.00
2023-03-12T15:55:22.634Z,100.00
2023-03-12T16:00:26.681Z,100.00
2023-03-12T16:05:30.201Z,100.00
2023-03-12T16:10:33.297Z,100.00
2023-03-12T16:15:37.502Z,100.00
2023-03-12T16:20:39.402Z,100.00
2023-03-12T16:25:43.098Z,100.00
2023-03-12T16:30:45.113Z,100.00
2023-03-12T16:35:46.947Z,100.00
2023-03-12T16:40:50.223Z,100.00
2023-03-12T16:45:52.532Z,100.00
2023-03-12T16:50:55.773Z,100.00
2023-03-12T16:56:00.693Z,100.00
2023-03-12T17:01:03.055Z,100.00
2023-03-12T17:06:05.499Z,100.00
2023-03-12T17:11:14.169Z,100.00
2023-03-12T17:16:16.198Z,100.00
2023-03-12T17:21:18.281Z,100.00
2023-03-12T17:26:21.591Z,100.00
2023-03-12T17:31:24.681Z,100.00
2023-03-12T17:36:26.600Z,100.00
2023-03-12T17:41:30.808Z,100.00
2023-03-12T17:46:32.722Z,100.00
2023-03-12T17:51:34.754Z,100.00
2023-03-12T17:56:37.773Z,100.00
2023-03-12T18:01:39.483Z,100.00
2023-03-12T18:06:41.150Z,100.00
2023-03-12T18:11:44.320Z,100.00
2023-03-12T18:16:47.058Z,100.00
2023-03-12T18:21:48.729Z,100.00
2023-03-12T18:26:52.169Z,100.00
2023-03-12T18:31:53.900Z,100.00
2023-03-12T18:36:55.582Z,100.00
2023-03-12T18:41:58.591Z,100.00
2023-03-12T18:47:00.328Z,100.00
2023-03-12T18:52:02.062Z,100.00
2023-03-12T18:57:05.216Z,100.00
2023-03-12T19:02:07.408Z,100.00
2023-03-12T19:07:10.650Z,100.00
2023-03-12T19:12:14.157Z,100.00
2023-03-12T19:17:15.884Z,100.00
2023-03-12T19:22:17.583Z,100.00
2023-03-12T19:27:21.035Z,100.00
2023-03-12T19:32:25.383Z,100.00
2023-03-12T19:37:29.380Z,100.00
2023-03-12T19:42:32.456Z,100.00
2023-03-12T19:47:34.210Z,100.00
2023-03-12T19:52:35.968Z,100.00
2023-03-12T19:57:39.110Z,100.00
2023-03-12T20:02:41.174Z,100.00
2023-03-12T20:07:44.240Z,100.00
2023-03-12T20:12:47.350Z,100.00
2023-03-12T20:17:49.059Z,100.00
2023-03-12T20:22:50.778Z,100.00
2023-03-12T20:27:53.826Z,100.00
2023-03-12T20:32:55.620Z,100.00
2023-03-12T20:37:57.411Z,100.00
2023-03-12T20:43:04.629Z,100.00
2023-03-12T20:48:10.035Z,100.00
2023-03-12T20:53:11.840Z,100.00
2023-03-12T20:58:14.850Z,100.00
2023-03-12T21:03:17.195Z,100.00
2023-03-12T21:08:18.922Z,100.00
2023-03-12T21:13:22.469Z,100.00
2023-03-12T21:18:25.017Z,100.00
2023-03-12T21:23:27.172Z,100.00
2023-03-12T21:28:30.957Z,100.00
2023-03-12T21:33:32.678Z,100.00
2023-03-12T21:38:34.461Z,100.00
2023-03-12T21:43:37.499Z,100.00
2023-03-12T21:48:39.375Z,100.00
2023-03-12T21:53:41.124Z,100.00
2023-03-12T21:58:44.874Z,100.00
2023-03-12T22:03:46.706Z,100.00
2023-03-12T22:08:49.162Z,100.00
2023-03-12T22:13:52.220Z,100.00
2023-03-12T22:18:53.904Z,100.00
2023-03-12T22:23:57.221Z,100.00
2023-03-12T22:29:01.213Z,100.00
2023-03-12T22:34:03.025Z,100.00
2023-03-12T22:39:05.679Z,100.00
2023-03-12T22:44:09.283Z,100.00
2023-03-12T22:49:11.061Z,100.00
2023-03-12T22:54:12.794Z,100.00
2023-03-12T22:59:15.828Z,100.00
2023-03-12T23:04:17.567Z,100.00
2023-03-12T23:09:19.419Z,100.00
2023-03-12T23:14:22.667Z,100.00
2023-03-12T23:19:24.387Z,100.00
2023-03-12T23:24:26.143Z,100.00
2023-03-12T23:29:30.588Z,100.00
2023-03-12T23:34:33.256Z,100.00
2023-03-12T23:39:44.973Z,100.00
2023-03-12T23:44:55.058Z,100.00
2023-03-12T23:49:56.819Z,100.00
2023-03-12T23:54:58.518Z,100.00
